createdAt,value
2019-03-17T00:00:46.477Z,13.13
2019-03-17T00:03:48.416Z,14.13
2019-03-17T00:06:50.372Z,14.07
2019-03-17T00:09:52.281Z,14.00
2019-03-17T00:12:54.227Z,14.03
2019-03-17T00:15:56.079Z,13.13
2019-03-17T00:18:58.343Z,13.70
2019-03-17T00:22:00.286Z,14.80
2019-03-17T00:25:09.320Z,12.83
2019-03-17T00:28:06.215Z,13.57
2019-03-17T00:31:08.119Z,13.47
2019-03-17T00:34:10.191Z,13.33
2019-03-17T00:37:12.135Z,13.63
2019-03-17T00:40:14.163Z,12.27
2019-03-17T00:43:16.071Z,12.87
2019-03-17T00:46:17.991Z,12.23
2019-03-17T00:49:19.989Z,12.80
2019-03-17T00:52:21.925Z,12.63
2019-03-17T00:55:23.846Z,12.17
2019-03-17T00:58:25.791Z,11.07
2019-03-17T01:01:27.719Z,11.00
2019-03-17T01:04:32.518Z,13.53
2019-03-17T01:07:34.440Z,10.37
2019-03-17T01:10:36.370Z,11.97
2019-03-17T01:13:38.332Z,10.73
2019-03-17T01:16:40.260Z,11.40
2019-03-17T01:19:42.406Z,11.13
2019-03-17T01:22:44.368Z,11.13
2019-03-17T01:25:46.317Z,11.07
2019-03-17T01:28:48.257Z,10.90
2019-03-17T01:31:50.153Z,11.20
2019-03-17T01:34:52.713Z,11.03
2019-03-17T01:37:54.632Z,11.00
2019-03-17T01:40:56.638Z,10.77
2019-03-17T01:43:58.604Z,9.80
2019-03-17T01:47:00.589Z,9.93
2019-03-17T01:50:03.246Z,11.13
2019-03-17T01:53:05.161Z,10.13
2019-03-17T01:56:07.097Z,9.60
2019-03-17T01:59:09.043Z,10.77
2019-03-17T02:02:11.022Z,10.57
2019-03-17T02:05:22.027Z,9.20
2019-03-17T02:08:16.984Z,9.57
2019-03-17T02:11:18.920Z,9.17
2019-03-17T02:14:22.091Z,9.70
2019-03-17T02:17:24.113Z,9.20
2019-03-17T02:20:26.149Z,8.97
2019-03-17T02:23:28.237Z,9.87
2019-03-17T02:26:30.165Z,9.60
2019-03-17T02:29:32.057Z,10.10
2019-03-17T02:32:34.101Z,9.43
2019-03-17T02:35:39.644Z,9.63
2019-03-17T02:38:40.663Z,11.40
2019-03-17T02:41:42.642Z,9.67
2019-03-17T02:44:44.600Z,10.00
2019-03-17T02:47:46.516Z,9.03
2019-03-17T02:50:48.544Z,10.17
2019-03-17T02:53:50.442Z,10.33
2019-03-17T02:56:52.399Z,10.60
2019-03-17T02:59:54.342Z,12.20
2019-03-17T03:02:57.680Z,9.70
2019-03-17T03:05:59.578Z,10.00
2019-03-17T03:09:01.505Z,10.27
2019-03-17T03:12:03.594Z,9.27
2019-03-17T03:15:07.532Z,9.40
2019-03-17T03:18:09.413Z,9.70
2019-03-17T03:21:12.513Z,11.00
2019-03-17T03:24:14.664Z,10.37
2019-03-17T03:27:16.646Z,9.47
2019-03-17T03:30:18.625Z,9.87
2019-03-17T03:33:20.554Z,10.37
2019-03-17T03:36:24.071Z,9.43
2019-03-17T03:39:25.989Z,10.73
2019-03-17T03:42:27.952Z,10.40
2019-03-17T03:45:29.901Z,10.70
2019-03-17T03:48:31.807Z,9.87
2019-03-17T03:51:33.837Z,10.30
2019-03-17T03:54:35.707Z,10.27
2019-03-17T03:57:37.659Z,10.13
2019-03-17T04:00:39.589Z,12.53
2019-03-17T04:03:41.600Z,10.13
2019-03-17T04:06:43.598Z,10.57
2019-03-17T04:09:45.507Z,9.83
2019-03-17T04:12:47.568Z,10.50
2019-03-17T04:15:49.549Z,10.30
2019-03-17T04:18:51.544Z,10.67
2019-03-17T04:21:53.589Z,8.97
2019-03-17T04:24:55.553Z,9.47
2019-03-17T04:27:57.525Z,9.83
2019-03-17T04:30:59.435Z,9.37
2019-03-17T04:34:01.474Z,10.50
2019-03-17T04:37:04.238Z,9.40
2019-03-17T04:40:07.823Z,8.27
2019-03-17T04:43:09.758Z,8.27
2019-03-17T04:46:11.719Z,8.83
2019-03-17T04:49:13.625Z,9.10
2019-03-17T04:52:15.739Z,9.70
2019-03-17T04:55:17.666Z,9.67
2019-03-17T04:58:19.594Z,9.87
2019-03-17T05:01:21.506Z,9.00
2019-03-17T05:04:23.561Z,9.00
2019-03-17T05:07:25.472Z,9.67
2019-03-17T05:10:28.022Z,10.00
2019-03-17T05:13:30.030Z,10.00
2019-03-17T05:16:35.647Z,9.73
2019-03-17T05:19:36.988Z,8.70
2019-03-17T05:22:39.061Z,9.13
2019-03-17T05:25:41.067Z,8.73
2019-03-17T05:28:43.038Z,7.63
2019-03-17T05:31:45.071Z,7.17
2019-03-17T05:34:46.993Z,6.87
2019-03-17T05:37:49.709Z,7.33
2019-03-17T05:40:51.641Z,7.13
2019-03-17T05:43:53.625Z,7.03
2019-03-17T05:46:55.638Z,7.90
2019-03-17T05:49:57.579Z,8.77
2019-03-17T05:52:59.688Z,7.90
2019-03-17T05:56:01.580Z,7.37
2019-03-17T05:59:03.499Z,7.00
2019-03-17T06:02:05.430Z,6.93
2019-03-17T06:05:07.698Z,7.80
2019-03-17T06:08:09.579Z,8.30
2019-03-17T06:11:11.570Z,8.83
2019-03-17T06:14:13.500Z,10.00
2019-03-17T06:17:15.421Z,7.70
2019-03-17T06:20:17.385Z,6.80
2019-03-17T06:23:19.539Z,7.00
2019-03-17T06:26:22.542Z,7.43
2019-03-17T06:29:24.552Z,8.47
2019-03-17T06:32:26.469Z,8.87
2019-03-17T06:35:28.390Z,9.63
2019-03-17T06:38:30.582Z,9.57
2019-03-17T06:41:32.515Z,8.80
2019-03-17T06:44:34.480Z,7.40
2019-03-17T06:47:36.423Z,7.63
2019-03-17T06:50:39.489Z,7.23
2019-03-17T06:53:41.473Z,6.30
2019-03-17T06:56:43.440Z,6.70
2019-03-17T06:59:45.422Z,5.70
2019-03-17T07:02:47.396Z,5.33
2019-03-17T07:05:49.429Z,5.00
2019-03-17T07:08:51.342Z,5.30
2019-03-17T07:11:53.339Z,5.53
2019-03-17T07:14:55.324Z,4.87
2019-03-17T07:17:57.280Z,4.27
2019-03-17T07:21:00.296Z,4.90
2019-03-17T07:24:02.394Z,4.57
2019-03-17T07:27:04.355Z,3.93
2019-03-17T07:30:09.925Z,3.83
2019-03-17T07:33:11.914Z,4.03
2019-03-17T07:36:13.880Z,3.33
2019-03-17T07:39:16.230Z,3.20
2019-03-17T07:42:18.145Z,3.37
2019-03-17T07:45:20.086Z,2.50
2019-03-17T07:48:21.999Z,3.10
2019-03-17T07:51:24.062Z,2.80
2019-03-17T07:54:26.026Z,3.13
2019-03-17T07:57:28.070Z,2.80
2019-03-17T08:00:32.149Z,2.77
2019-03-17T08:03:33.969Z,2.70
2019-03-17T08:06:35.881Z,2.90
2019-03-17T08:09:37.887Z,2.63
2019-03-17T08:12:39.834Z,2.53
2019-03-17T08:15:41.827Z,2.50
2019-03-17T08:18:43.827Z,2.93
2019-03-17T08:21:45.830Z,2.33
2019-03-17T08:24:47.942Z,2.20
2019-03-17T08:27:49.971Z,2.30
2019-03-17T08:30:53.356Z,1.87
2019-03-17T08:33:55.752Z,2.33
2019-03-17T08:36:57.744Z,1.83
2019-03-17T08:39:59.699Z,2.00
2019-03-17T08:43:01.663Z,2.30
2019-03-17T08:46:04.023Z,2.33
2019-03-17T08:49:05.950Z,2.30
2019-03-17T08:52:07.915Z,2.17
2019-03-17T08:55:10.514Z,2.00
2019-03-17T08:58:13.623Z,2.03
2019-03-17T09:01:15.630Z,3.07
2019-03-17T09:04:17.528Z,2.23
2019-03-17T09:07:19.535Z,2.67
2019-03-17T09:10:21.494Z,2.50
2019-03-17T09:13:23.447Z,2.57
2019-03-17T09:16:25.399Z,1.90
2019-03-17T09:19:27.307Z,3.10
2019-03-17T09:22:29.363Z,1.67
2019-03-17T09:25:31.474Z,2.73
2019-03-17T09:28:33.408Z,2.53
2019-03-17T09:31:35.399Z,2.17
2019-03-17T09:34:37.309Z,2.63
2019-03-17T09:37:39.320Z,1.80
2019-03-17T09:40:41.297Z,2.00
2019-03-17T09:43:43.345Z,1.93
2019-03-17T09:46:45.366Z,1.67
2019-03-17T09:49:47.301Z,1.67
2019-03-17T09:52:49.309Z,1.30
2019-03-17T09:55:51.281Z,1.40
2019-03-17T09:58:53.304Z,1.60
2019-03-17T10:01:55.234Z,1.63
2019-03-17T10:04:57.329Z,1.73
2019-03-17T10:07:59.321Z,1.50
2019-03-17T10:11:01.207Z,1.50
2019-03-17T10:14:03.327Z,1.37
2019-03-17T10:17:05.261Z,1.70
2019-03-17T10:20:13.221Z,1.40
2019-03-17T10:23:15.241Z,2.10
2019-03-17T10:26:17.356Z,1.40
2019-03-17T10:29:20.541Z,1.77
2019-03-17T10:32:22.432Z,1.53
2019-03-17T10:35:24.438Z,1.97
2019-03-17T10:38:26.403Z,1.23
2019-03-17T10:41:28.453Z,1.30
2019-03-17T10:44:30.464Z,1.60
2019-03-17T10:47:32.631Z,1.33
2019-03-17T10:50:34.561Z,1.60
2019-03-17T10:53:36.523Z,1.40
2019-03-17T10:56:38.604Z,1.40
2019-03-17T10:59:40.605Z,1.30
2019-03-17T11:02:42.575Z,1.20
2019-03-17T11:05:44.531Z,1.73
2019-03-17T11:08:46.483Z,1.20
2019-03-17T11:11:51.692Z,1.00
2019-03-17T11:14:54.934Z,1.43
2019-03-17T11:17:56.943Z,1.60
2019-03-17T11:20:58.936Z,1.53
2019-03-17T11:24:00.839Z,1.47
2019-03-17T11:27:03.099Z,1.60
2019-03-17T11:30:13.574Z,1.60
2019-03-17T11:33:15.532Z,1.63
2019-03-17T11:36:17.415Z,1.57
2019-03-17T11:39:19.393Z,2.13
2019-03-17T11:42:21.318Z,1.67
2019-03-17T11:45:25.119Z,1.50
2019-03-17T11:48:27.064Z,1.70
2019-03-17T11:51:29.004Z,1.97
2019-03-17T11:54:30.997Z,1.40
2019-03-17T11:57:33.046Z,2.27
2019-03-17T12:00:34.999Z,1.40
2019-03-17T12:03:36.948Z,1.77
2019-03-17T12:06:38.877Z,2.17
2019-03-17T12:09:49.537Z,1.40
2019-03-17T12:12:44.762Z,1.67
2019-03-17T12:15:46.699Z,1.63
2019-03-17T12:18:49.692Z,1.57
2019-03-17T12:21:51.634Z,1.70
2019-03-17T12:24:53.708Z,2.03
2019-03-17T12:27:55.803Z,2.10
2019-03-17T12:30:57.844Z,1.60
2019-03-17T12:33:59.872Z,1.77
2019-03-17T12:37:01.773Z,1.53
2019-03-17T12:40:03.815Z,1.70
2019-03-17T12:43:05.739Z,2.07
2019-03-17T12:46:07.725Z,2.17
2019-03-17T12:49:09.789Z,2.03
2019-03-17T12:52:11.769Z,1.80
2019-03-17T12:55:13.838Z,2.10
2019-03-17T12:58:15.807Z,2.47
2019-03-17T13:01:17.792Z,2.20
2019-03-17T13:04:19.726Z,2.00
2019-03-17T13:07:21.622Z,2.00
2019-03-17T13:10:23.586Z,1.77
2019-03-17T13:13:26.847Z,2.30
2019-03-17T13:16:28.785Z,2.43
2019-03-17T13:19:30.723Z,2.70
2019-03-17T13:22:32.863Z,2.00
2019-03-17T13:25:34.832Z,2.30
2019-03-17T13:28:37.081Z,2.10
2019-03-17T13:31:38.999Z,1.90
2019-03-17T13:34:41.015Z,2.33
2019-03-17T13:37:43.555Z,1.93
2019-03-17T13:40:45.473Z,1.90
2019-03-17T13:43:47.505Z,2.00
2019-03-17T13:46:49.571Z,2.47
2019-03-17T13:49:51.556Z,2.27
2019-03-17T13:52:53.557Z,2.00
2019-03-17T13:55:55.513Z,2.20
2019-03-17T13:58:57.584Z,2.07
2019-03-17T14:01:59.585Z,2.57
2019-03-17T14:05:01.485Z,2.10
2019-03-17T14:08:03.458Z,2.03
2019-03-17T14:11:05.381Z,2.30
2019-03-17T14:14:07.440Z,1.73
2019-03-17T14:17:09.372Z,2.07
2019-03-17T14:20:16.618Z,2.63
2019-03-17T14:23:18.595Z,2.00
2019-03-17T14:26:20.567Z,2.03
2019-03-17T14:29:22.654Z,1.70
2019-03-17T14:32:24.555Z,1.97
2019-03-17T14:35:26.513Z,2.17
2019-03-17T14:38:28.564Z,1.80
2019-03-17T14:41:30.493Z,2.20
2019-03-17T14:44:32.473Z,1.90
2019-03-17T14:47:34.439Z,1.97
2019-03-17T14:50:36.393Z,1.90
2019-03-17T14:53:38.319Z,2.07
2019-03-17T14:56:41.531Z,1.90
2019-03-17T14:59:44.822Z,1.90
2019-03-17T15:02:47.179Z,1.90
2019-03-17T15:05:49.160Z,1.70
2019-03-17T15:08:51.259Z,2.23
2019-03-17T15:11:53.195Z,1.87
2019-03-17T15:14:55.146Z,1.83
2019-03-17T15:17:57.054Z,2.10
2019-03-17T15:20:59.016Z,2.50
2019-03-17T15:24:01.026Z,1.90
2019-03-17T15:27:02.913Z,1.87
2019-03-17T15:30:11.490Z,1.60
2019-03-17T15:33:13.487Z,1.80
2019-03-17T15:36:15.481Z,2.13
2019-03-17T15:39:17.413Z,2.83
2019-03-17T15:42:19.688Z,2.10
2019-03-17T15:45:24.157Z,2.23
2019-03-17T15:48:26.122Z,3.57
2019-03-17T15:51:28.275Z,3.47
2019-03-17T15:54:30.633Z,2.90
2019-03-17T15:57:32.634Z,2.80
2019-03-17T16:00:34.915Z,2.93
2019-03-17T16:03:36.918Z,2.73
2019-03-17T16:06:39.065Z,2.90
2019-03-17T16:09:41.053Z,3.47
2019-03-17T16:12:43.000Z,3.80
2019-03-17T16:15:44.928Z,3.70
2019-03-17T16:18:46.932Z,4.17
2019-03-17T16:21:49.071Z,2.40
2019-03-17T16:24:51.174Z,3.10
2019-03-17T16:27:53.091Z,4.30
2019-03-17T16:30:55.241Z,3.33
2019-03-17T16:33:57.153Z,3.00
2019-03-17T16:36:59.243Z,3.23
2019-03-17T16:40:02.259Z,2.60
2019-03-17T16:43:04.784Z,4.17
2019-03-17T16:46:06.817Z,3.77
2019-03-17T16:49:09.086Z,4.13
2019-03-17T16:52:11.518Z,4.10
2019-03-17T16:55:15.844Z,4.40
2019-03-17T16:58:17.861Z,4.20
2019-03-17T17:01:20.269Z,4.00
2019-03-17T17:04:22.579Z,7.87
2019-03-17T17:07:24.558Z,8.80
2019-03-17T17:10:27.643Z,6.10
2019-03-17T17:13:29.972Z,4.30
2019-03-17T17:16:32.639Z,6.97
2019-03-17T17:19:34.634Z,6.20
2019-03-17T17:22:37.040Z,3.70
2019-03-17T17:25:40.070Z,4.70
2019-03-17T17:28:45.593Z,10.10
2019-03-17T17:31:48.249Z,15.33
2019-03-17T17:34:50.188Z,16.47
2019-03-17T17:37:52.852Z,13.10
2019-03-17T17:40:55.331Z,17.07
2019-03-17T17:43:57.333Z,12.47
2019-03-17T17:47:01.322Z,9.23
2019-03-17T17:50:09.253Z,4.60
2019-03-17T17:53:11.209Z,3.13
2019-03-17T17:56:13.187Z,4.10
2019-03-17T17:59:16.909Z,4.67
2019-03-17T18:02:19.415Z,4.33
2019-03-17T18:05:25.355Z,5.27
2019-03-17T18:08:29.342Z,5.90
2019-03-17T18:11:31.274Z,7.33
2019-03-17T18:14:37.530Z,6.33
2019-03-17T18:17:40.235Z,6.73
2019-03-17T18:20:42.454Z,7.80
2019-03-17T18:23:45.075Z,9.00
2019-03-17T18:26:47.186Z,9.63
2019-03-17T18:29:50.418Z,9.73
2019-03-17T18:32:52.702Z,9.57
2019-03-17T18:35:56.607Z,11.17
2019-03-17T18:38:58.975Z,9.43
2019-03-17T18:42:01.365Z,9.67
2019-03-17T18:45:07.010Z,10.70
2019-03-17T18:48:09.525Z,5.50
2019-03-17T18:51:14.674Z,5.07
2019-03-17T18:54:20.150Z,3.77
2019-03-17T18:57:24.991Z,2.40
2019-03-17T19:00:27.088Z,3.03
2019-03-17T19:03:32.749Z,2.47
2019-03-17T19:06:36.473Z,2.60
2019-03-17T19:09:39.225Z,2.50
2019-03-17T19:12:45.868Z,2.00
2019-03-17T19:15:51.187Z,2.43
2019-03-17T19:18:53.676Z,1.80
2019-03-17T19:21:56.554Z,2.07
2019-03-17T19:25:00.544Z,2.03
2019-03-17T19:28:10.244Z,2.60
2019-03-17T19:31:12.906Z,2.03
2019-03-17T19:34:17.073Z,1.87
2019-03-17T19:37:19.195Z,1.60
2019-03-17T19:40:25.298Z,2.00
2019-03-17T19:43:27.633Z,1.93
2019-03-17T19:46:31.011Z,1.80
2019-03-17T19:49:33.126Z,1.73
2019-03-17T19:52:36.639Z,1.90
2019-03-17T19:55:39.040Z,2.23
2019-03-17T19:58:41.159Z,2.40
2019-03-17T20:01:43.302Z,2.17
2019-03-17T20:04:45.327Z,2.30
2019-03-17T20:07:47.405Z,1.97
2019-03-17T20:10:52.929Z,2.00
2019-03-17T20:13:55.037Z,2.70
2019-03-17T20:17:01.413Z,2.10
2019-03-17T20:20:10.032Z,2.07
2019-03-17T20:23:14.704Z,2.03
2019-03-17T20:26:21.840Z,2.10
2019-03-17T20:29:28.737Z,2.13
2019-03-17T20:32:30.257Z,1.87
2019-03-17T20:35:32.837Z,2.27
2019-03-17T20:38:38.662Z,2.37
2019-03-17T20:41:40.664Z,1.70
2019-03-17T20:44:43.089Z,2.23
2019-03-17T20:47:45.039Z,2.00
2019-03-17T20:50:47.120Z,2.60
2019-03-17T20:53:49.026Z,2.80
2019-03-17T20:56:51.169Z,2.70
2019-03-17T20:59:53.157Z,3.00
2019-03-17T21:02:55.289Z,2.20
2019-03-17T21:05:57.313Z,2.40
2019-03-17T21:09:01.403Z,2.47
2019-03-17T21:12:06.121Z,2.30
2019-03-17T21:15:11.200Z,2.10
2019-03-17T21:18:13.143Z,2.23
2019-03-17T21:21:15.428Z,2.47
2019-03-17T21:24:17.377Z,1.97
2019-03-17T21:27:19.365Z,3.00
2019-03-17T21:30:23.354Z,2.40
2019-03-17T21:33:25.350Z,2.50
2019-03-17T21:36:27.528Z,2.60
2019-03-17T21:39:29.597Z,2.03
2019-03-17T21:42:31.588Z,2.30
2019-03-17T21:45:33.708Z,3.30
2019-03-17T21:48:35.649Z,3.87
2019-03-17T21:51:37.628Z,4.43
2019-03-17T21:54:39.623Z,3.73
2019-03-17T21:57:41.495Z,2.90
2019-03-17T22:00:43.428Z,2.77
2019-03-17T22:03:45.386Z,2.87
2019-03-17T22:06:47.404Z,2.70
2019-03-17T22:09:49.374Z,2.60
2019-03-17T22:12:51.340Z,2.77
2019-03-17T22:15:53.389Z,3.40
2019-03-17T22:18:55.284Z,3.43
2019-03-17T22:21:58.664Z,2.80
2019-03-17T22:25:00.560Z,3.07
2019-03-17T22:28:08.111Z,2.20
2019-03-17T22:31:06.302Z,2.40
2019-03-17T22:34:08.410Z,2.70
2019-03-17T22:37:10.480Z,2.50
2019-03-17T22:40:17.763Z,2.37
2019-03-17T22:43:19.658Z,2.30
2019-03-17T22:46:21.588Z,2.53
2019-03-17T22:49:23.664Z,2.60
2019-03-17T22:52:25.592Z,2.97
2019-03-17T22:55:27.534Z,2.83
2019-03-17T22:58:29.421Z,2.80
2019-03-17T23:01:31.446Z,2.70
2019-03-17T23:04:33.387Z,2.63
2019-03-17T23:07:36.276Z,2.80
2019-03-17T23:10:38.222Z,2.73
2019-03-17T23:13:40.307Z,2.83
2019-03-17T23:16:42.273Z,5.40
2019-03-17T23:19:44.268Z,6.47
2019-03-17T23:22:46.210Z,3.70
2019-03-17T23:25:48.224Z,3.40
2019-03-17T23:28:50.228Z,3.60
2019-03-17T23:31:52.180Z,3.30
2019-03-17T23:34:54.206Z,2.73
2019-03-17T23:37:56.543Z,3.30
2019-03-17T23:40:58.944Z,2.73
2019-03-17T23:44:00.946Z,2.80
2019-03-17T23:47:03.043Z,2.67
2019-03-17T23:50:07.295Z,3.00
2019-03-17T23:53:09.346Z,2.20
2019-03-17T23:56:11.298Z,2.63
2019-03-17T23:59:13.294Z,3.63
